Time,TemperatureF,DewpointF,PressureIn,WindDirection,WindDirectionDegrees,WindSpeedMPH,WindSpeedGustMPH,Humidity,HourlyPrecipIn,Conditions,Clouds,dailyrainin,SoftwareType,DateUTC
2013-03-11 00:04:00,46.0,31.2,27.52,SSE,158,0.0,0.0,56,0.00,,---,0.00,VWS V14.01,2013-03-11 07:04:00,
2013-03-11 00:09:00,45.9,30.6,27.52,SSE,158,0.0,0.0,55,0.00,,---,0.00,VWS V14.01,2013-03-11 07:09:00,
2013-03-11 00:14:00,45.5,30.3,27.52,SSE,158,0.0,0.0,55,0.00,,---,0.00,VWS V14.01,2013-03-11 07:14:00,
2013-03-11 00:19:00,45.0,29.8,27.52,SSE,158,0.0,0.0,55,0.00,,---,0.00,VWS V14.01,2013-03-11 07:19:00,
2013-03-11 00:24:00,44.8,30.1,27.52,SSE,158,0.0,0.0,56,0.00,,---,0.00,VWS V14.01,2013-03-11 07:24:00,
2013-03-11 00:29:00,44.8,30.5,27.52,SSE,158,0.0,0.0,57,0.00,,---,0.00,VWS V14.01,2013-03-11 07:29:00,
2013-03-11 00:34:00,44.2,30.4,27.52,SSE,158,0.0,0.0,58,0.00,,---,0.00,VWS V14.01,2013-03-11 07:34:00,
2013-03-11 00:39:00,44.4,30.6,27.52,South,180,0.0,2.2,58,0.00,,---,0.00,VWS V14.01,2013-03-11 07:39:00,
2013-03-11 00:44:00,44.4,31.0,27.52,SE,135,0.0,2.2,59,0.00,,---,0.00,VWS V14.01,2013-03-11 07:44:00,
2013-03-11 00:50:00,44.2,30.8,27.52,SSE,158,0.0,0.0,59,0.00,,---,0.00,VWS V14.01,2013-03-11 07:50:00,
2013-03-11 00:55:00,44.6,31.2,27.52,South,180,0.0,0.0,59,0.00,,---,0.00,VWS V14.01,2013-03-11 07:55:00,
2013-03-11 01:00:00,44.6,31.2,27.52,SSW,202,0.0,0.0,59,0.00,,---,0.00,VWS V14.01,2013-03-11 08:00:00,
2013-03-11 01:05:00,45.0,31.5,27.52,South,180,0.0,0.0,59,0.00,,---,0.00,VWS V14.01,2013-03-11 08:05:00,
2013-03-11 01:10:00,44.2,30.8,27.52,South,180,0.0,0.0,59,0.00,,---,0.00,VWS V14.01,2013-03-11 08:10:00,
2013-03-11 01:15:00,44.1,30.7,27.55,West,270,0.0,0.0,59,0.00,,---,0.00,VWS V14.01,2013-03-11 08:15:00,
2013-03-11 01:20:00,43.9,30.9,27.55,SW,225,0.0,0.0,60,0.00,,---,0.00,VWS V14.01,2013-03-11 08:20:00,
2013-03-11 01:25:00,43.3,30.8,27.55,ESE,112,2.2,2.2,61,0.00,,---,0.00,VWS V14.01,2013-03-11 08:25:00,
2013-03-11 01:30:00,43.5,31.4,27.55,ESE,112,2.2,2.2,62,0.00,,---,0.00,VWS V14.01,2013-03-11 08:30:00,
2013-03-11 01:35:00,43.5,31.4,27.55,ESE,112,2.7,2.7,62,0.00,,---,0.00,VWS V14.01,2013-03-11 08:35:00,
2013-03-11 01:40:00,43.5,31.4,27.55,ESE,112,2.7,2.7,62,0.00,,---,0.00,VWS V14.01,2013-03-11 08:40:00,
2013-03-11 01:45:00,43.7,31.5,27.52,ESE,112,2.7,2.7,62,0.00,,---,0.00,VWS V14.01,2013-03-11 08:45:00,
2013-03-11 01:50:00,44.1,31.9,27.52,SE,135,2.2,2.7,62,0.00,,---,0.00,VWS V14.01,2013-03-11 08:50:00,
2013-03-11 01:55:00,44.1,31.9,27.52,ESE,112,2.7,3.1,62,0.00,,---,0.00,VWS V14.01,2013-03-11 08:55:00,
2013-03-11 02:01:00,43.7,31.1,27.52,ESE,112,2.2,2.7,61,0.00,,---,0.00,VWS V14.01,2013-03-11 09:01:00,
2013-03-11 02:06:00,43.3,30.8,27.52,ESE,112,0.0,0.0,61,0.00,,---,0.00,VWS V14.01,2013-03-11 09:06:00,
2013-03-11 02:11:00,43.2,31.0,27.52,East,90,0.0,2.2,62,0.00,,---,0.00,VWS V14.01,2013-03-11 09:11:00,
2013-03-11 02:16:00,43.0,31.3,27.52,ESE,112,0.0,0.0,63,0.00,,---,0.00,VWS V14.01,2013-03-11 09:16:00,
2013-03-11 02:22:00,42.4,31.1,27.52,SE,135,0.0,0.0,64,0.00,,---,0.00,VWS V14.01,2013-03-11 09:22:00,
2013-03-11 02:27:00,42.1,30.8,27.52,ESE,112,0.0,0.0,64,0.00,,---,0.00,VWS V14.01,2013-03-11 09:27:00,
2013-03-11 02:32:00,41.5,30.7,27.52,East,90,0.0,0.0,65,0.00,,---,0.00,VWS V14.01,2013-03-11 09:32:00,
2013-03-11 02:37:00,41.2,30.3,27.52,East,90,0.0,0.0,65,0.00,,---,0.00,VWS V14.01,2013-03-11 09:37:00,
2013-03-11 02:42:00,41.0,30.5,27.52,East,90,0.0,0.0,66,0.00,,---,0.00,VWS V14.01,2013-03-11 09:42:00,
2013-03-11 02:47:00,40.6,30.9,27.52,East,90,0.0,0.0,68,0.00,,---,0.00,VWS V14.01,2013-03-11 09:47:00,
2013-03-11 02:52:00,40.6,30.9,27.52,East,90,0.0,0.0,68,0.00,,---,0.00,VWS V14.01,2013-03-11 09:52:00,
2013-03-11 02:57:00,41.2,31.4,27.52,ESE,112,0.0,0.0,68,0.00,,---,0.00,VWS V14.01,2013-03-11 09:57:00,
2013-03-11 03:02:00,41.2,31.4,27.52,SE,135,0.0,0.0,68,0.00,,---,0.00,VWS V14.01,2013-03-11 10:02:00,
2013-03-11 03:07:00,40.8,31.1,27.52,SSE,158,0.0,0.0,68,0.00,,---,0.00,VWS V14.01,2013-03-11 10:07:00,
2013-03-11 03:12:00,40.5,30.8,27.52,SSE,158,0.0,0.0,68,0.00,,---,0.00,VWS V14.01,2013-03-11 10:12:00,
2013-03-11 03:17:00,40.3,30.6,27.52,SSE,158,0.0,0.0,68,0.00,,---,0.00,VWS V14.01,2013-03-11 10:17:00,
2013-03-11 03:22:00,40.3,30.6,27.52,SSW,202,0.0,0.0,68,0.00,,---,0.00,VWS V14.01,2013-03-11 10:22:00,
2013-03-11 03:27:00,40.6,30.9,27.52,SSE,158,0.0,3.1,68,0.00,,---,0.00,VWS V14.01,2013-03-11 10:27:00,
2013-03-11 03:32:00,40.8,30.4,27.52,SSE,158,0.0,2.2,66,0.00,,---,0.00,VWS V14.01,2013-03-11 10:32:00,
2013-03-11 03:37:00,41.4,29.7,27.52,WSW,248,0.0,0.0,63,0.00,,---,0.00,VWS V14.01,2013-03-11 10:37:00,
2013-03-11 03:43:00,41.0,28.6,27.49,West,270,0.0,0.0,61,0.00,,---,0.00,VWS V14.01,2013-03-11 10:43:00,
2013-03-11 03:48:00,41.0,28.6,27.49,West,270,0.0,0.0,61,0.00,,---,0.00,VWS V14.01,2013-03-11 10:48:00,
2013-03-11 03:53:00,40.6,27.9,27.49,West,270,0.0,0.0,60,0.00,,---,0.00,VWS V14.01,2013-03-11 10:53:00,
2013-03-11 03:58:00,40.1,27.4,27.52,West,270,0.0,0.0,60,0.00,,---,0.00,VWS V14.01,2013-03-11 10:58:00,
2013-03-11 04:03:00,40.1,27.8,27.52,West,270,0.0,0.0,61,0.00,,---,0.00,VWS V14.01,2013-03-11 11:03:00,
2013-03-11 04:08:00,40.1,27.8,27.52,ENE,68,0.0,0.0,61,0.00,,---,0.00,VWS V14.01,2013-03-11 11:08:00,
2013-03-11 04:13:00,40.1,27.8,27.49,SE,135,0.0,0.0,61,0.00,,---,0.00,VWS V14.01,2013-03-11 11:13:00,
2013-03-11 04:18:00,40.3,27.9,27.49,ESE,112,0.0,0.0,61,0.00,,---,0.00,VWS V14.01,2013-03-11 11:18:00,
2013-03-11 04:23:00,40.5,28.1,27.49,SE,135,0.0,0.0,61,0.00,,---,0.00,VWS V14.01,2013-03-11 11:23:00,
2013-03-11 04:28:00,40.3,27.9,27.49,ENE,68,0.0,0.0,61,0.00,,---,0.00,VWS V14.01,2013-03-11 11:28:00,
2013-03-11 04:33:00,40.1,27.8,27.49,ENE,68,0.0,0.0,61,0.00,,---,0.00,VWS V14.01,2013-03-11 11:33:00,
2013-03-11 04:38:00,40.5,28.1,27.49,NE,45,0.0,0.0,61,0.00,,---,0.00,VWS V14.01,2013-03-11 11:38:00,
2013-03-11 04:44:00,40.3,28.3,27.52,ENE,68,2.2,2.2,62,0.00,,---,0.00,VWS V14.01,2013-03-11 11:44:00,
2013-03-11 04:49:00,39.9,28.0,27.52,ESE,112,0.0,0.0,62,0.00,,---,0.00,VWS V14.01,2013-03-11 11:49:00,
2013-03-11 04:54:00,39.9,28.4,27.52,NE,45,0.0,0.0,63,0.00,,---,0.00,VWS V14.01,2013-03-11 11:54:00,
2013-03-11 04:59:00,39.7,28.6,27.52,NE,45,0.0,0.0,64,0.00,,---,0.00,VWS V14.01,2013-03-11 11:59:00,
2013-03-11 05:04:00,39.4,28.2,27.52,NE,45,0.0,0.0,64,0.00,,---,0.00,VWS V14.01,2013-03-11 12:04:00,
2013-03-11 05:09:00,38.8,28.1,27.52,East,90,0.0,0.0,65,0.00,,---,0.00,VWS V14.01,2013-03-11 12:09:00,
2013-03-11 05:14:00,38.5,28.1,27.52,SE,135,0.0,0.0,66,0.00,,---,0.00,VWS V14.01,2013-03-11 12:14:00,
2013-03-11 05:19:00,38.5,28.5,27.52,WSW,248,0.0,0.0,67,0.00,,---,0.00,VWS V14.01,2013-03-11 12:19:00,
2013-03-11 05:24:00,38.1,28.1,27.52,ESE,112,0.0,0.0,67,0.00,,---,0.00,VWS V14.01,2013-03-11 12:24:00,
2013-03-11 05:29:00,38.8,28.8,27.52,SE,135,2.7,3.1,67,0.00,,---,0.00,VWS V14.01,2013-03-11 12:29:00,
2013-03-11 05:34:00,39.0,28.6,27.52,SE,135,0.0,2.2,66,0.00,,---,0.00,VWS V14.01,2013-03-11 12:34:00,
2013-03-11 05:40:00,39.2,28.4,27.52,SE,135,0.0,0.0,65,0.00,,---,0.00,VWS V14.01,2013-03-11 12:40:00,
2013-03-11 05:45:00,39.0,28.3,27.52,ESE,112,2.7,2.7,65,0.00,,---,0.00,VWS V14.01,2013-03-11 12:45:00,
2013-03-11 05:50:00,39.2,28.1,27.52,ESE,112,3.6,3.6,64,0.00,,---,0.00,VWS V14.01,2013-03-11 12:50:00,
2013-03-11 05:55:00,39.6,28.4,27.52,SE,135,4.0,4.0,64,0.00,,---,0.00,VWS V14.01,2013-03-11 12:55:00,
2013-03-11 06:00:00,39.4,28.2,27.52,SSE,158,2.2,2.2,64,0.00,,---,0.00,VWS V14.01,2013-03-11 13:00:00,
2013-03-11 06:05:00,39.0,28.3,27.52,SSE,158,0.0,0.0,65,0.00,,---,0.00,VWS V14.01,2013-03-11 13:05:00,
2013-03-11 06:10:00,38.8,28.1,27.52,South,180,0.0,0.0,65,0.00,,---,0.00,VWS V14.01,2013-03-11 13:10:00,
2013-03-11 06:15:00,38.7,28.3,27.52,SW,225,0.0,0.0,66,0.00,,---,0.00,VWS V14.01,2013-03-11 13:15:00,
2013-03-11 06:21:00,37.9,28.0,27.52,South,180,0.0,0.0,67,0.00,,---,0.00,VWS V14.01,2013-03-11 13:21:00,
2013-03-11 06:26:00,37.6,28.0,27.52,South,180,0.0,0.0,68,0.00,,---,0.00,VWS V14.01,2013-03-11 13:26:00,
2013-03-11 06:32:00,37.6,28.4,27.52,South,180,0.0,2.2,69,0.00,,---,0.00,VWS V14.01,2013-03-11 13:32:00,
2013-03-11 06:37:00,38.1,29.2,27.52,SSW,202,0.0,2.2,70,0.00,,---,0.00,VWS V14.01,2013-03-11 13:37:00,
2013-03-11 06:42:00,37.9,29.0,27.52,South,180,0.0,0.0,70,0.00,,---,0.00,VWS V14.01,2013-03-11 13:42:00,
2013-03-11 06:47:00,38.1,29.6,27.52,SSW,202,0.0,0.0,71,0.00,,---,0.00,VWS V14.01,2013-03-11 13:47:00,
2013-03-11 06:52:00,37.9,29.0,27.52,South,180,0.0,0.0,70,0.00,,---,0.00,VWS V14.01,2013-03-11 13:52:00,
2013-03-11 06:57:00,37.9,29.4,27.52,South,180,0.0,0.0,71,0.00,,---,0.00,VWS V14.01,2013-03-11 13:57:00,
2013-03-11 07:03:00,38.5,29.9,27.52,SW,225,0.0,0.0,71,0.00,,---,0.00,VWS V14.01,2013-03-11 14:03:00,
2013-03-11 07:08:00,39.2,30.2,27.52,SW,225,0.0,0.0,70,0.00,,---,0.00,VWS V14.01,2013-03-11 14:08:00,
2013-03-11 07:13:00,40.5,30.8,27.52,SSE,158,0.0,0.0,68,0.00,,---,0.00,VWS V14.01,2013-03-11 14:13:00,
2013-03-11 07:18:00,42.3,30.6,27.52,ESE,112,2.2,2.7,63,0.00,,---,0.00,VWS V14.01,2013-03-11 14:18:00,
2013-03-11 07:23:00,43.3,29.6,27.52,ESE,112,2.7,2.7,58,0.00,,---,0.00,VWS V14.01,2013-03-11 14:23:00,
2013-03-11 07:28:00,44.4,29.3,27.52,ESE,112,3.1,3.1,55,0.00,,---,0.00,VWS V14.01,2013-03-11 14:28:00,
2013-03-11 07:33:00,45.3,28.3,27.52,SE,135,2.2,2.2,51,0.00,,---,0.00,VWS V14.01,2013-03-11 14:33:00,
2013-03-11 07:38:00,46.4,28.3,27.52,East,90,0.0,2.7,49,0.00,,---,0.00,VWS V14.01,2013-03-11 14:38:00,
2013-03-11 07:43:00,46.9,28.3,27.52,East,90,0.0,0.0,48,0.00,,---,0.00,VWS V14.01,2013-03-11 14:43:00,
2013-03-11 07:48:00,47.5,28.3,27.52,ENE,68,0.0,0.0,47,0.00,,---,0.00,VWS V14.01,2013-03-11 14:48:00,
2013-03-11 07:53:00,48.6,28.7,27.52,NE,45,0.0,0.0,46,0.00,,---,0.00,VWS V14.01,2013-03-11 14:53:00,
2013-03-11 07:59:00,48.9,28.0,27.52,NE,45,0.0,0.0,44,0.00,,---,0.00,VWS V14.01,2013-03-11 14:59:00,
2013-03-11 08:04:00,50.4,28.2,27.52,SSW,202,0.0,0.0,42,0.00,,---,0.00,VWS V14.01,2013-03-11 15:04:00,
2013-03-11 08:09:00,51.1,28.2,27.52,West,270,0.0,0.0,41,0.00,,---,0.00,VWS V14.01,2013-03-11 15:09:00,
2013-03-11 08:14:00,51.8,27.6,27.55,North,0,2.2,2.7,39,0.00,,---,0.00,VWS V14.01,2013-03-11 15:14:00,
2013-03-11 08:19:00,51.8,27.0,27.55,NNE,22,0.0,0.0,38,0.00,,---,0.00,VWS V14.01,2013-03-11 15:19:00,
2013-03-11 08:24:00,51.3,27.2,27.55,NNE,22,2.7,4.5,39,0.00,,---,0.00,VWS V14.01,2013-03-11 15:24:00,
2013-03-11 08:29:00,52.2,28.0,27.55,North,0,3.6,3.6,39,0.00,,---,0.00,VWS V14.01,2013-03-11 15:29:00,
2013-03-11 08:34:00,51.8,27.6,27.55,NNE,22,3.1,3.1,39,0.00,,---,0.00,VWS V14.01,2013-03-11 15:34:00,
2013-03-11 08:39:00,52.3,28.1,27.55,NE,45,2.2,2.2,39,0.00,,---,0.00,VWS V14.01,2013-03-11 15:39:00,
2013-03-11 08:44:00,53.1,28.8,27.55,NNE,22,3.1,3.1,39,0.00,,---,0.00,VWS V14.01,2013-03-11 15:44:00,
2013-03-11 08:49:00,54.1,29.1,27.55,ESE,112,0.0,0.0,38,0.00,,---,0.00,VWS V14.01,2013-03-11 15:49:00,
2013-03-11 08:54:00,54.5,28.8,27.55,NNE,22,3.1,3.6,37,0.00,,---,0.00,VWS V14.01,2013-03-11 15:54:00,
2013-03-11 08:59:00,56.1,29.5,27.55,ENE,68,0.0,0.0,36,0.00,,---,0.00,VWS V14.01,2013-03-11 15:59:00,
2013-03-11 09:04:00,55.9,29.4,27.55,SSW,202,2.2,2.7,36,0.00,,---,0.00,VWS V14.01,2013-03-11 16:04:00,
2013-03-11 09:09:00,56.8,30.2,27.55,NNE,22,0.0,0.0,36,0.00,,---,0.00,VWS V14.01,2013-03-11 16:09:00,
2013-03-11 09:15:00,58.1,30.6,27.55,NNE,22,3.6,3.6,35,0.00,,---,0.00,VWS V14.01,2013-03-11 16:15:00,
2013-03-11 09:20:00,58.8,29.8,27.55,East,90,2.7,2.7,33,0.00,,---,0.00,VWS V14.01,2013-03-11 16:20:00,
2013-03-11 09:25:00,57.9,28.3,27.55,NW,315,2.2,3.6,32,0.00,,---,0.00,VWS V14.01,2013-03-11 16:25:00,
2013-03-11 09:30:00,58.8,28.3,27.55,WSW,248,0.0,2.2,31,0.00,,---,0.00,VWS V14.01,2013-03-11 16:30:00,
2013-03-11 09:35:00,59.7,27.4,27.55,WSW,248,2.2,2.7,29,0.00,,---,0.00,VWS V14.01,2013-03-11 16:35:00,
2013-03-11 09:40:00,59.5,27.3,27.55,North,0,2.7,3.1,29,0.00,,---,0.00,VWS V14.01,2013-03-11 16:40:00,
2013-03-11 09:45:00,60.4,28.1,27.55,ENE,68,0.0,0.0,29,0.00,,---,0.00,VWS V14.01,2013-03-11 16:45:00,
2013-03-11 09:50:00,61.2,26.9,27.55,North,0,0.0,0.0,27,0.00,,---,0.00,VWS V14.01,2013-03-11 16:50:00,
2013-03-11 09:55:00,61.3,27.1,27.55,West,270,2.7,2.7,27,0.00,,---,0.00,VWS V14.01,2013-03-11 16:55:00,
2013-03-11 10:00:00,62.1,27.7,27.55,North,0,0.0,0.0,27,0.00,,---,0.00,VWS V14.01,2013-03-11 17:00:00,
2013-03-11 10:05:00,61.9,26.6,27.55,West,270,3.1,3.1,26,0.00,,---,0.00,VWS V14.01,2013-03-11 17:05:00,
2013-03-11 10:10:00,62.4,27.1,27.55,WNW,292,3.1,3.1,26,0.00,,---,0.00,VWS V14.01,2013-03-11 17:10:00,
2013-03-11 10:16:00,64.2,27.7,27.55,SE,135,4.0,4.0,25,0.00,,---,0.00,VWS V14.01,2013-03-11 17:16:00,
2013-03-11 10:21:00,62.4,27.1,27.55,SSW,202,2.2,4.0,26,0.00,,---,0.00,VWS V14.01,2013-03-11 17:21:00,
2013-03-11 10:26:00,63.5,27.1,27.55,NNE,22,3.1,3.1,25,0.00,,---,0.00,VWS V14.01,2013-03-11 17:26:00,
2013-03-11 10:32:00,64.8,28.1,27.55,WNW,292,5.4,5.4,25,0.00,,---,0.00,VWS V14.01,2013-03-11 17:32:00,
2013-03-11 10:37:00,62.6,26.3,27.55,West,270,2.2,4.0,25,0.00,,---,0.00,VWS V14.01,2013-03-11 17:37:00,
2013-03-11 10:42:00,65.1,27.5,27.55,NNE,22,2.2,3.1,24,0.00,,---,0.00,VWS V14.01,2013-03-11 17:42:00,
2013-03-11 10:47:00,64.9,27.3,27.55,West,270,2.2,3.6,24,0.00,,---,0.00,VWS V14.01,2013-03-11 17:47:00,
2013-03-11 10:52:00,63.5,26.1,27.55,WNW,292,0.0,0.0,24,0.00,,---,0.00,VWS V14.01,2013-03-11 17:52:00,
2013-03-11 10:57:00,64.8,27.2,27.52,WNW,292,4.9,5.4,24,0.00,,---,0.00,VWS V14.01,2013-03-11 17:57:00,
2013-03-11 11:02:00,65.1,27.5,27.52,SSW,202,0.0,2.7,24,0.00,,---,0.00,VWS V14.01,2013-03-11 18:02:00,
2013-03-11 11:07:00,65.5,27.8,27.52,SSW,202,3.6,3.6,24,0.00,,---,0.00,VWS V14.01,2013-03-11 18:07:00,
2013-03-11 11:12:00,66.9,29.0,27.52,West,270,3.1,3.1,24,0.00,,---,0.00,VWS V14.01,2013-03-11 18:12:00,
2013-03-11 11:17:00,65.8,28.1,27.52,NNW,338,0.0,2.2,24,0.00,,---,0.00,VWS V14.01,2013-03-11 18:17:00,
2013-03-11 11:22:00,68.0,28.9,27.52,NNW,338,0.0,2.2,23,0.00,,---,0.00,VWS V14.01,2013-03-11 18:22:00,
2013-03-11 11:28:00,68.7,29.5,27.52,NNE,22,3.6,4.9,23,0.00,,---,0.00,VWS V14.01,2013-03-11 18:28:00,
2013-03-11 11:33:00,68.2,27.9,27.52,North,0,6.3,6.3,22,0.00,,---,0.00,VWS V14.01,2013-03-11 18:33:00,
2013-03-11 11:38:00,69.3,29.9,27.52,NNE,22,0.0,3.1,23,0.00,,---,0.00,VWS V14.01,2013-03-11 18:38:00,
2013-03-11 11:43:00,69.6,29.1,27.52,ESE,112,3.6,3.6,22,0.00,,---,0.00,VWS V14.01,2013-03-11 18:43:00,
2013-03-11 11:48:00,70.7,30.0,27.52,SW,225,0.0,0.0,22,0.00,,---,0.00,VWS V14.01,2013-03-11 18:48:00,
2013-03-11 11:53:00,70.7,30.0,27.52,North,0,3.1,4.0,22,0.00,,---,0.00,VWS V14.01,2013-03-11 18:53:00,
2013-03-11 11:58:00,70.9,30.2,27.52,SSW,202,0.0,2.7,22,0.00,,---,0.00,VWS V14.01,2013-03-11 18:58:00,
2013-03-11 12:04:00,70.7,30.0,27.52,ENE,68,0.0,3.1,22,0.00,,---,0.00,VWS V14.01,2013-03-11 19:04:00,
2013-03-11 12:09:00,71.2,30.5,27.52,NNE,22,2.7,3.6,22,0.00,,---,0.00,VWS V14.01,2013-03-11 19:09:00,
2013-03-11 12:14:00,71.4,30.6,27.52,NNE,22,3.1,3.6,22,0.00,,---,0.00,VWS V14.01,2013-03-11 19:14:00,
2013-03-11 12:19:00,71.6,29.6,27.52,South,180,0.0,3.1,21,0.00,,---,0.00,VWS V14.01,2013-03-11 19:19:00,
2013-03-11 12:24:00,70.5,29.9,27.52,WNW,292,4.9,6.3,22,0.00,,---,0.00,VWS V14.01,2013-03-11 19:24:00,
2013-03-11 12:29:00,70.0,29.4,27.52,NNE,22,8.3,8.3,22,0.00,,---,0.00,VWS V14.01,2013-03-11 19:29:00,
2013-03-11 12:34:00,70.5,29.9,27.52,ENE,68,2.7,3.1,22,0.00,,---,0.00,VWS V14.01,2013-03-11 19:34:00,
2013-03-11 12:39:00,72.0,29.9,27.52,ENE,68,2.2,2.2,21,0.00,,---,0.00,VWS V14.01,2013-03-11 19:39:00,
2013-03-11 12:44:00,70.5,26.3,27.49,WSW,248,3.6,6.3,19,0.00,,---,0.00,VWS V14.01,2013-03-11 19:44:00,
2013-03-11 12:49:00,71.8,27.3,27.49,ENE,68,3.1,3.1,19,0.00,,---,0.00,VWS V14.01,2013-03-11 19:49:00,
2013-03-11 12:54:00,68.7,26.1,27.49,West,270,4.0,7.2,20,0.00,,---,0.00,VWS V14.01,2013-03-11 19:54:00,
2013-03-11 12:59:00,70.2,26.0,27.49,ENE,68,0.0,2.7,19,0.00,,---,0.00,VWS V14.01,2013-03-11 19:59:00,
2013-03-11 13:04:00,71.6,27.2,27.49,NNE,22,0.0,2.2,19,0.00,,---,0.00,VWS V14.01,2013-03-11 20:04:00,
2013-03-11 13:10:00,71.4,27.0,27.49,West,270,4.9,6.3,19,0.00,,---,0.00,VWS V14.01,2013-03-11 20:10:00,
2013-03-11 13:15:00,69.8,25.7,27.49,WNW,292,4.0,5.4,19,0.00,,---,0.00,VWS V14.01,2013-03-11 20:15:00,
2013-03-11 13:20:00,71.2,26.9,27.49,WSW,248,3.6,4.0,19,0.00,,---,0.00,VWS V14.01,2013-03-11 20:20:00,
2013-03-11 13:25:00,71.4,27.0,27.49,SSE,158,3.1,4.0,19,0.00,,---,0.00,VWS V14.01,2013-03-11 20:25:00,
2013-03-11 13:30:00,70.9,26.6,27.46,SW,225,3.1,6.3,19,0.00,,---,0.00,VWS V14.01,2013-03-11 20:30:00,
2013-03-11 13:35:00,70.7,26.5,27.46,West,270,4.0,6.7,19,0.00,,---,0.00,VWS V14.01,2013-03-11 20:35:00,
2013-03-11 13:40:00,71.6,27.2,27.46,NW,315,4.9,6.3,19,0.00,,---,0.00,VWS V14.01,2013-03-11 20:40:00,
2013-03-11 13:45:00,71.6,27.2,27.46,NW,315,6.3,6.3,19,0.00,,---,0.00,VWS V14.01,2013-03-11 20:45:00,
2013-03-11 13:50:00,72.1,27.6,27.46,SSE,158,4.0,4.0,19,0.00,,---,0.00,VWS V14.01,2013-03-11 20:50:00,
2013-03-11 13:55:00,71.2,26.9,27.46,WNW,292,3.1,4.9,19,0.00,,---,0.00,VWS V14.01,2013-03-11 20:55:00,
2013-03-11 14:00:00,71.1,26.8,27.46,SW,225,4.9,5.8,19,0.00,,---,0.00,VWS V14.01,2013-03-11 21:00:00,
2013-03-11 14:05:00,71.8,27.3,27.46,WNW,292,5.4,5.8,19,0.00,,---,0.00,VWS V14.01,2013-03-11 21:05:00,
2013-03-11 14:10:00,72.7,28.1,27.46,North,0,3.1,4.9,19,0.00,,---,0.00,VWS V14.01,2013-03-11 21:10:00,
2013-03-11 14:15:00,72.9,28.2,27.46,WNW,292,5.4,5.4,19,0.00,,---,0.00,VWS V14.01,2013-03-11 21:15:00,
2013-03-11 14:20:00,72.5,27.9,27.46,WNW,292,5.8,5.8,19,0.00,,---,0.00,VWS V14.01,2013-03-11 21:20:00,
2013-03-11 14:25:00,73.0,28.4,27.46,WNW,292,8.3,8.3,19,0.00,,---,0.00,VWS V14.01,2013-03-11 21:25:00,
2013-03-11 14:30:00,72.7,28.1,27.43,WNW,292,3.6,3.6,19,0.00,,---,0.00,VWS V14.01,2013-03-11 21:30:00,
2013-03-11 14:35:00,72.3,27.8,27.43,NNW,338,3.1,7.6,19,0.00,,---,0.00,VWS V14.01,2013-03-11 21:35:00,
2013-03-11 14:41:00,73.6,27.5,27.43,West,270,4.0,4.0,18,0.00,,---,0.00,VWS V14.01,2013-03-11 21:41:00,
2013-03-11 14:46:00,72.7,28.1,27.43,WNW,292,8.3,8.3,19,0.00,,---,0.00,VWS V14.01,2013-03-11 21:46:00,
2013-03-11 14:51:00,73.6,27.5,27.43,NNW,338,3.1,3.6,18,0.00,,---,0.00,VWS V14.01,2013-03-11 21:51:00,
2013-03-11 14:56:00,72.1,27.6,27.43,WSW,248,7.2,7.6,19,0.00,,---,0.00,VWS V14.01,2013-03-11 21:56:00,
2013-03-11 15:01:00,72.3,27.8,27.43,SW,225,3.6,8.1,19,0.00,,---,0.00,VWS V14.01,2013-03-11 22:01:00,
2013-03-11 15:06:00,72.9,28.2,27.43,WNW,292,3.1,4.0,19,0.00,,---,0.00,VWS V14.01,2013-03-11 22:06:00,
2013-03-11 15:11:00,73.4,27.4,27.43,WNW,292,8.3,8.7,18,0.00,,---,0.00,VWS V14.01,2013-03-11 22:11:00,
2013-03-11 15:17:00,72.0,27.5,27.43,WNW,292,5.4,6.3,19,0.00,,---,0.00,VWS V14.01,2013-03-11 22:17:00,
2013-03-11 15:22:00,73.2,28.5,27.43,North,0,3.1,5.8,19,0.00,,---,0.00,VWS V14.01,2013-03-11 22:22:00,
2013-03-11 15:27:00,72.3,27.8,27.43,NNW,338,4.0,4.0,19,0.00,,---,0.00,VWS V14.01,2013-03-11 22:27:00,
2013-03-11 15:32:00,73.4,27.4,27.43,WNW,292,6.3,8.7,18,0.00,,---,0.00,VWS V14.01,2013-03-11 22:32:00,
2013-03-11 15:37:00,72.5,27.9,27.43,West,270,5.4,5.4,19,0.00,,---,0.00,VWS V14.01,2013-03-11 22:37:00,
2013-03-11 15:42:00,72.3,27.8,27.43,West,270,4.0,8.1,19,0.00,,---,0.00,VWS V14.01,2013-03-11 22:42:00,
2013-03-11 15:48:00,73.0,28.4,27.43,NNW,338,5.8,6.3,19,0.00,,---,0.00,VWS V14.01,2013-03-11 22:48:00,
2013-03-11 15:53:00,73.9,31.6,27.43,WNW,292,3.1,6.3,21,0.00,,---,0.00,VWS V14.01,2013-03-11 22:53:00,
2013-03-11 15:58:00,73.4,27.4,27.43,WNW,292,4.9,4.9,18,0.00,,---,0.00,VWS V14.01,2013-03-11 22:58:00,
2013-03-11 16:03:00,72.3,30.2,27.43,NNW,338,4.0,4.0,21,0.00,,---,0.00,VWS V14.01,2013-03-11 23:03:00,
2013-03-11 16:08:00,73.0,30.8,27.43,WNW,292,7.2,7.2,21,0.00,,---,0.00,VWS V14.01,2013-03-11 23:08:00,
2013-03-11 16:13:00,73.0,30.8,27.43,WNW,292,8.3,8.3,21,0.00,,---,0.00,VWS V14.01,2013-03-11 23:13:00,
2013-03-11 16:18:00,73.0,30.8,27.43,WNW,292,4.0,7.6,21,0.00,,---,0.00,VWS V14.01,2013-03-11 23:18:00,
2013-03-11 16:23:00,72.9,30.7,27.43,ENE,68,4.0,4.9,21,0.00,,---,0.00,VWS V14.01,2013-03-11 23:23:00,
2013-03-11 16:28:00,73.6,31.3,27.43,North,0,3.6,6.3,21,0.00,,---,0.00,VWS V14.01,2013-03-11 23:28:00,
2013-03-11 16:34:00,73.0,30.8,27.43,WNW,292,5.4,5.4,21,0.00,,---,0.00,VWS V14.01,2013-03-11 23:34:00,
2013-03-11 16:39:00,72.0,27.5,27.43,WNW,292,4.9,7.6,19,0.00,,---,0.00,VWS V14.01,2013-03-11 23:39:00,
2013-03-11 16:44:00,73.2,31.0,27.40,WNW,292,2.7,4.0,21,0.00,,---,0.00,VWS V14.01,2013-03-11 23:44:00,
2013-03-11 16:49:00,73.6,31.3,27.40,NNW,338,3.1,3.1,21,0.00,,---,0.00,VWS V14.01,2013-03-11 23:49:00,
2013-03-11 16:54:00,71.8,27.3,27.40,WNW,292,8.7,8.7,19,0.00,,---,0.00,VWS V14.01,2013-03-11 23:54:00,
2013-03-11 16:59:00,72.3,27.8,27.40,WNW,292,8.7,8.7,19,0.00,,---,0.00,VWS V14.01,2013-03-11 23:59:00,
2013-03-11 17:04:00,72.1,27.6,27.40,NW,315,5.8,5.8,19,0.00,,---,0.00,VWS V14.01,2013-03-12 00:04:00,
2013-03-11 17:09:00,71.6,27.2,27.40,WNW,292,10.5,10.5,19,0.00,,---,0.00,VWS V14.01,2013-03-12 00:09:00,
2013-03-11 17:14:00,70.7,26.5,27.40,WNW,292,10.1,10.1,19,0.00,,---,0.00,VWS V14.01,2013-03-12 00:14:00,
2013-03-11 17:19:00,71.4,27.0,27.40,WNW,292,4.9,4.9,19,0.00,,---,0.00,VWS V14.01,2013-03-12 00:19:00,
2013-03-11 17:25:00,71.2,26.9,27.40,NNW,338,8.1,8.1,19,0.00,,---,0.00,VWS V14.01,2013-03-12 00:25:00,
2013-03-11 17:30:00,70.5,26.3,27.40,West,270,3.6,4.9,19,0.00,,---,0.00,VWS V14.01,2013-03-12 00:30:00,
2013-03-11 17:35:00,70.3,26.2,27.40,NW,315,5.4,5.4,19,0.00,,---,0.00,VWS V14.01,2013-03-12 00:35:00,
2013-03-11 17:40:00,69.6,26.8,27.40,NNW,338,3.1,5.4,20,0.00,,---,0.00,VWS V14.01,2013-03-12 00:40:00,
2013-03-11 17:45:00,69.8,25.7,27.43,WNW,292,8.7,10.1,19,0.00,,---,0.00,VWS V14.01,2013-03-12 00:45:00,
2013-03-11 17:50:00,69.6,26.8,27.43,WSW,248,4.0,5.4,20,0.00,,---,0.00,VWS V14.01,2013-03-12 00:50:00,
2013-03-11 17:55:00,68.7,26.1,27.43,WNW,292,3.6,8.1,20,0.00,,---,0.00,VWS V14.01,2013-03-12 00:55:00,
2013-03-11 18:01:00,68.4,25.8,27.40,NNW,338,6.3,6.3,20,0.00,,---,0.00,VWS V14.01,2013-03-12 01:01:00,
2013-03-11 18:06:00,68.0,27.8,27.40,WNW,292,8.1,8.3,22,0.00,,---,0.00,VWS V14.01,2013-03-12 01:06:00,
2013-03-11 18:11:00,67.5,27.3,27.40,West,270,8.3,8.3,22,0.00,,---,0.00,VWS V14.01,2013-03-12 01:11:00,
2013-03-11 18:16:00,67.1,27.0,27.40,WNW,292,4.9,6.3,22,0.00,,---,0.00,VWS V14.01,2013-03-12 01:16:00,
2013-03-11 18:21:00,66.7,26.7,27.40,WNW,292,4.9,7.2,22,0.00,,---,0.00,VWS V14.01,2013-03-12 01:21:00,
2013-03-11 18:26:00,66.2,26.3,27.40,West,270,7.6,7.6,22,0.00,,---,0.00,VWS V14.01,2013-03-12 01:26:00,
2013-03-11 18:31:00,66.0,27.2,27.40,WNW,292,3.1,5.4,23,0.00,,---,0.00,VWS V14.01,2013-03-12 01:31:00,
2013-03-11 18:36:00,65.8,27.0,27.40,WNW,292,3.6,4.0,23,0.00,,---,0.00,VWS V14.01,2013-03-12 01:36:00,
2013-03-11 18:42:00,65.5,26.7,27.40,West,270,3.6,8.3,23,0.00,,---,0.00,VWS V14.01,2013-03-12 01:42:00,
2013-03-11 18:47:00,65.1,26.4,27.40,West,270,4.0,6.3,23,0.00,,---,0.00,VWS V14.01,2013-03-12 01:47:00,
2013-03-11 18:52:00,64.8,26.1,27.40,NW,315,7.2,7.2,23,0.00,,---,0.00,VWS V14.01,2013-03-12 01:52:00,
2013-03-11 18:57:00,64.8,26.1,27.43,WNW,292,3.6,8.7,23,0.00,,---,0.00,VWS V14.01,2013-03-12 01:57:00,
2013-03-11 19:02:00,64.4,26.9,27.43,WNW,292,5.4,7.6,24,0.00,,---,0.00,VWS V14.01,2013-03-12 02:02:00,
2013-03-11 19:07:00,64.0,26.5,27.43,West,270,5.4,6.7,24,0.00,,---,0.00,VWS V14.01,2013-03-12 02:07:00,
2013-03-11 19:12:00,63.9,26.4,27.43,WNW,292,5.4,7.6,24,0.00,,---,0.00,VWS V14.01,2013-03-12 02:12:00,
2013-03-11 19:17:00,63.7,27.2,27.43,West,270,3.6,5.8,25,0.00,,---,0.00,VWS V14.01,2013-03-12 02:17:00,
2013-03-11 19:22:00,63.3,26.9,27.43,NNW,338,4.0,5.4,25,0.00,,---,0.00,VWS V14.01,2013-03-12 02:22:00,
2013-03-11 19:27:00,63.1,26.8,27.43,WNW,292,7.2,7.2,25,0.00,,---,0.00,VWS V14.01,2013-03-12 02:27:00,
2013-03-11 19:32:00,63.0,26.6,27.43,NW,315,4.9,7.6,25,0.00,,---,0.00,VWS V14.01,2013-03-12 02:32:00,
2013-03-11 19:37:00,62.6,27.3,27.43,WNW,292,4.9,5.4,26,0.00,,---,0.00,VWS V14.01,2013-03-12 02:37:00,
2013-03-11 19:42:00,62.6,27.3,27.43,West,270,8.1,8.3,26,0.00,,---,0.00,VWS V14.01,2013-03-12 02:42:00,
2013-03-11 19:47:00,62.2,27.9,27.43,WNW,292,4.0,4.9,27,0.00,,---,0.00,VWS V14.01,2013-03-12 02:47:00,
2013-03-11 19:53:00,62.1,27.7,27.43,WNW,292,2.7,5.4,27,0.00,,---,0.00,VWS V14.01,2013-03-12 02:53:00,
2013-03-11 19:58:00,61.9,27.6,27.43,West,270,2.7,4.0,27,0.00,,---,0.00,VWS V14.01,2013-03-12 02:58:00,
2013-03-11 20:03:00,61.7,28.3,27.43,WNW,292,2.7,3.6,28,0.00,,---,0.00,VWS V14.01,2013-03-12 03:03:00,
2013-03-11 20:08:00,61.7,28.3,27.43,WNW,292,5.8,6.3,28,0.00,,---,0.00,VWS V14.01,2013-03-12 03:08:00,
2013-03-11 20:13:00,61.5,28.1,27.43,NW,315,3.6,6.3,28,0.00,,---,0.00,VWS V14.01,2013-03-12 03:13:00,
2013-03-11 20:18:00,61.2,27.8,27.43,WNW,292,2.7,4.0,28,0.00,,---,0.00,VWS V14.01,2013-03-12 03:18:00,
2013-03-11 20:23:00,61.0,27.7,27.43,West,270,0.0,4.0,28,0.00,,---,0.00,VWS V14.01,2013-03-12 03:23:00,
2013-03-11 20:28:00,60.4,28.1,27.43,WNW,292,0.0,2.7,29,0.00,,---,0.00,VWS V14.01,2013-03-12 03:28:00,
2013-03-11 20:33:00,59.9,28.4,27.43,West,270,2.7,2.7,30,0.00,,---,0.00,VWS V14.01,2013-03-12 03:33:00,
2013-03-11 20:38:00,59.9,28.4,27.43,WNW,292,0.0,2.2,30,0.00,,---,0.00,VWS V14.01,2013-03-12 03:38:00,
2013-03-11 20:43:00,59.2,27.8,27.43,NNW,338,0.0,0.0,30,0.00,,---,0.00,VWS V14.01,2013-03-12 03:43:00,
2013-03-11 20:48:00,58.5,28.7,27.43,NE,45,0.0,0.0,32,0.00,,---,0.00,VWS V14.01,2013-03-12 03:48:00,
2013-03-11 20:53:00,57.7,28.9,27.43,ENE,68,0.0,0.0,33,0.00,,---,0.00,VWS V14.01,2013-03-12 03:53:00,
2013-03-11 20:58:00,57.2,29.1,27.43,East,90,0.0,0.0,34,0.00,,---,0.00,VWS V14.01,2013-03-12 03:58:00,
2013-03-11 21:00:00,57.0,29.7,27.43,SSE,158,0.0,0.0,35,0.00,,---,0.00,VWS V14.01,2013-03-12 04:00:00,
2013-03-11 21:05:00,56.5,29.2,27.43,South,180,0.0,0.0,35,0.00,,---,0.00,VWS V14.01,2013-03-12 04:05:00,
2013-03-11 21:10:00,56.1,29.5,27.43,SSW,202,0.0,0.0,36,0.00,,---,0.00,VWS V14.01,2013-03-12 04:10:00,
2013-03-11 21:15:00,55.9,29.4,27.43,South,180,0.0,0.0,36,0.00,,---,0.00,VWS V14.01,2013-03-12 04:15:00,
2013-03-11 21:20:00,55.2,29.4,27.43,South,180,0.0,0.0,37,0.00,,---,0.00,VWS V14.01,2013-03-12 04:20:00,
2013-03-11 21:25:00,54.7,28.9,27.43,South,180,0.0,0.0,37,0.00,,---,0.00,VWS V14.01,2013-03-12 04:25:00,
2013-03-11 21:30:00,54.1,29.1,27.43,South,180,0.0,0.0,38,0.00,,---,0.00,VWS V14.01,2013-03-12 04:30:00,
2013-03-11 21:36:00,53.6,28.6,27.43,South,180,0.0,0.0,38,0.00,,---,0.00,VWS V14.01,2013-03-12 04:36:00,
2013-03-11 21:41:00,53.1,28.8,27.43,SSE,158,0.0,0.0,39,0.00,,---,0.00,VWS V14.01,2013-03-12 04:41:00,
2013-03-11 21:46:00,53.1,29.4,27.43,SSE,158,0.0,0.0,40,0.00,,---,0.00,VWS V14.01,2013-03-12 04:46:00,
2013-03-11 21:51:00,52.9,29.2,27.43,South,180,0.0,0.0,40,0.00,,---,0.00,VWS V14.01,2013-03-12 04:51:00,
2013-03-11 21:56:00,52.2,28.6,27.46,South,180,0.0,0.0,40,0.00,,---,0.00,VWS V14.01,2013-03-12 04:56:00,
2013-03-11 22:02:00,52.0,29.0,27.46,South,180,0.0,0.0,41,0.00,,---,0.00,VWS V14.01,2013-03-12 05:02:00,
2013-03-11 22:07:00,52.0,29.0,27.46,SE,135,0.0,0.0,41,0.00,,---,0.00,VWS V14.01,2013-03-12 05:07:00,
2013-03-11 22:12:00,52.0,29.0,27.46,South,180,0.0,0.0,41,0.00,,---,0.00,VWS V14.01,2013-03-12 05:12:00,
2013-03-11 22:17:00,51.8,28.3,27.46,SE,135,0.0,0.0,40,0.00,,---,0.00,VWS V14.01,2013-03-12 05:17:00,
2013-03-11 22:22:00,51.8,28.3,27.46,SE,135,0.0,0.0,40,0.00,,---,0.00,VWS V14.01,2013-03-12 05:22:00,
2013-03-11 22:27:00,51.6,28.1,27.46,SE,135,0.0,0.0,40,0.00,,---,0.00,VWS V14.01,2013-03-12 05:27:00,
2013-03-11 22:32:00,51.8,27.6,27.46,SE,135,2.7,2.7,39,0.00,,---,0.00,VWS V14.01,2013-03-12 05:32:00,
2013-03-11 22:37:00,52.0,27.2,27.46,SSE,158,2.2,2.7,38,0.00,,---,0.00,VWS V14.01,2013-03-12 05:37:00,
2013-03-11 22:42:00,51.8,27.0,27.46,SE,135,0.0,0.0,38,0.00,,---,0.00,VWS V14.01,2013-03-12 05:42:00,
2013-03-11 22:47:00,52.2,26.7,27.46,SE,135,2.2,2.2,37,0.00,,---,0.00,VWS V14.01,2013-03-12 05:47:00,
2013-03-11 22:52:00,52.0,26.5,27.46,SE,135,2.2,3.1,37,0.00,,---,0.00,VWS V14.01,2013-03-12 05:52:00,
2013-03-11 22:57:00,52.0,26.5,27.46,SSE,158,2.2,2.2,37,0.00,,---,0.00,VWS V14.01,2013-03-12 05:57:00,
2013-03-11 23:03:00,51.8,26.4,27.46,SE,135,2.2,2.7,37,0.00,,---,0.00,VWS V14.01,2013-03-12 06:03:00,
2013-03-11 23:08:00,51.4,26.7,27.46,SSE,158,0.0,0.0,38,0.00,,---,0.00,VWS V14.01,2013-03-12 06:08:00,
2013-03-11 23:13:00,51.1,26.4,27.46,South,180,0.0,0.0,38,0.00,,---,0.00,VWS V14.01,2013-03-12 06:13:00,
2013-03-11 23:18:00,50.9,26.8,27.46,ESE,112,2.2,2.7,39,0.00,,---,0.00,VWS V14.01,2013-03-12 06:18:00,
2013-03-11 23:23:00,50.5,26.5,27.46,ESE,112,2.2,2.2,39,0.00,,---,0.00,VWS V14.01,2013-03-12 06:23:00,
2013-03-11 23:28:00,50.4,26.4,27.46,ESE,112,0.0,0.0,39,0.00,,---,0.00,VWS V14.01,2013-03-12 06:28:00,
2013-03-11 23:33:00,50.2,26.2,27.46,ENE,68,0.0,0.0,39,0.00,,---,0.00,VWS V14.01,2013-03-12 06:33:00,
2013-03-11 23:38:00,49.8,26.5,27.46,East,90,0.0,0.0,40,0.00,,---,0.00,VWS V14.01,2013-03-12 06:38:00,
2013-03-11 23:43:00,49.3,26.0,27.46,East,90,0.0,0.0,40,0.00,,---,0.00,VWS V14.01,2013-03-12 06:43:00,
2013-03-11 23:48:00,49.3,26.0,27.46,ESE,112,0.0,0.0,40,0.00,,---,0.00,VWS V14.01,2013-03-12 06:48:00,
2013-03-11 23:53:00,49.3,26.0,27.46,ESE,112,0.0,0.0,40,0.00,,---,0.00,VWS V14.01,2013-03-12 06:53:00,
2013-03-11 23:58:00,48.9,26.3,27.46,East,90,0.0,0.0,41,0.00,,---,0.00,VWS V14.01,2013-03-12 06:58:00,